Time;durP1;ratioP1;P1;durP2;ratioP2;P2;SDS_P1;SDS_P2;PMS_P1;PMS_P2;Temp;Humidity;BMP_temperature;BMP_pressure;BME280_temperature;BME280_humidity;BME280_pressure;Samples;Min_cycle;Max_cycle;Signal;HPM_P1;HPM_P2
2023/08/03 00:01:30;;;;;;;17.90;16.60;;;18.50;99.90;;;;;;4899287;29;20960;-83
2023/08/03 00:04:00;;;;;;;14.50;13.80;;;18.60;1.00;;;;;;4900256;29;21051;-80
2023/08/03 00:06:29;;;;;;;15.10;14.40;;;18.60;99.90;;;;;;4902706;29;20450;-81
2023/08/03 00:08:57;;;;;;;13.87;13.37;;;18.50;99.90;;;;;;4904997;29;20489;-81
2023/08/03 00:11:25;;;;;;;14.30;13.60;;;18.60;99.90;;;;;;4903046;29;20541;-79
2023/08/03 00:13:53;;;;;;;14.50;13.80;;;18.60;99.90;;;;;;4898940;29;20478;-82
2023/08/03 00:16:23;;;;;;;14.97;14.20;;;18.60;1.00;;;;;;4901608;29;20489;-83
2023/08/03 00:18:51;;;;;;;14.97;14.27;;;18.60;1.00;;;;;;4904677;29;20471;-84
2023/08/03 00:21:19;;;;;;;15.67;14.77;;;18.60;1.00;;;;;;4910417;29;20544;-81
2023/08/03 00:23:48;;;;;;;15.60;14.67;;;18.60;99.90;;;;;;4904506;29;20486;-79
2023/08/03 00:26:16;;;;;;;14.50;13.97;;;18.60;99.90;;;;;;4904707;29;20477;-81
2023/08/03 00:28:44;;;;;;;14.33;13.73;;;18.60;99.90;;;;;;4904179;29;20461;-80
2023/08/03 00:31:12;;;;;;;14.57;13.87;;;18.50;1.00;;;;;;4902729;29;20702;-79
2023/08/03 00:33:42;;;;;;;15.00;14.20;;;18.50;27.20;;;;;;4906304;29;20465;-80
2023/08/03 00:36:10;;;;;;;15.80;14.90;;;18.60;1.00;;;;;;4909668;29;20480;-82
2023/08/03 00:38:38;;;;;;;14.73;14.03;;;18.60;99.90;;;;;;4903752;29;20602;-83
2023/08/03 00:41:06;;;;;;;15.70;14.67;;;18.50;99.90;;;;;;4902126;29;20699;-82
2023/08/03 00:43:35;;;;;;;14.53;13.50;;;18.60;99.90;;;;;;4904590;29;20576;-81
2023/08/03 00:46:03;;;;;;;14.83;13.93;;;18.60;99.90;;;;;;4907036;28;20466;-80
2023/08/03 00:48:31;;;;;;;14.87;13.93;;;18.50;99.90;;;;;;4905666;29;20796;-82
2023/08/03 00:51:01;;;;;;;15.47;14.37;;;18.50;1.00;;;;;;4906184;29;21264;-81
2023/08/03 00:53:30;;;;;;;14.50;13.60;;;18.50;1.00;;;;;;4907064;29;20493;-82
2023/08/03 00:55:59;;;;;;;13.80;13.33;;;18.50;1.00;;;;;;4901095;29;20461;-82
2023/08/03 00:58:27;;;;;;;15.10;14.17;;;18.50;1.00;;;;;;4905211;29;20471;-84
2023/08/03 01:00:55;;;;;;;15.23;14.53;;;18.50;1.00;;;;;;4907949;29;21066;-82
2023/08/03 01:03:23;;;;;;;15.10;14.37;;;18.40;1.00;;;;;;4907071;29;20504;-80
2023/08/03 01:05:52;;;;;;;14.60;13.90;;;18.40;1.00;;;;;;4907550;29;20459;-83
2023/08/03 01:08:22;;;;;;;16.90;15.23;;;18.40;1.00;;;;;;4904931;29;20465;-84
2023/08/03 01:10:50;;;;;;;15.70;14.80;;;18.30;99.90;;;;;;4908246;29;20461;-81
2023/08/03 01:13:19;;;;;;;14.90;14.00;;;18.30;1.00;;;;;;4907436;29;20478;-83
2023/08/03 01:15:47;;;;;;;15.07;14.33;;;18.40;1.00;;;;;;4903699;29;20452;-82
2023/08/03 01:18:16;;;;;;;15.63;14.70;;;18.40;99.90;;;;;;4905477;29;20484;-81
2023/08/03 01:20:45;;;;;;;15.03;14.17;;;18.30;41.30;;;;;;4903550;29;20476;-82
2023/08/03 01:23:15;;;;;;;14.97;14.10;;;18.30;1.00;;;;;;4901183;29;20451;-82
2023/08/03 01:25:43;;;;;;;14.63;13.90;;;18.30;1.00;;;;;;4905716;29;21630;-81
2023/08/03 01:28:11;;;;;;;14.13;13.43;;;18.30;1.00;;;;;;4907960;29;20485;-84
2023/08/03 01:30:39;;;;;;;15.43;14.33;;;18.40;99.90;;;;;;4901729;29;20466;-84
2023/08/03 01:33:07;;;;;;;14.90;14.23;;;18.40;49.50;;;;;;4905052;29;20557;-84
2023/08/03 01:35:36;;;;;;;15.17;14.17;;;18.30;1.00;;;;;;4903869;29;20912;-83
2023/08/03 01:38:04;;;;;;;14.27;13.67;;;18.30;1.00;;;;;;4906289;29;20458;-81
2023/08/03 01:40:33;;;;;;;14.20;13.70;;;18.20;1.00;;;;;;4903036;29;20462;-83
2023/08/03 01:43:02;;;;;;;14.13;13.60;;;18.20;99.90;;;;;;4903213;29;20462;-86
2023/08/03 01:45:30;;;;;;;15.70;14.60;;;18.20;99.90;;;;;;4919728;29;20501;-85
2023/08/03 01:47:58;;;;;;;14.50;13.90;;;18.20;99.90;;;;;;4905877;29;20501;-84
2023/08/03 01:50:26;;;;;;;14.63;13.73;;;18.20;99.90;;;;;;4905960;29;20471;-81
2023/08/03 01:52:54;;;;;;;14.47;13.67;;;18.10;99.90;;;;;;4907181;29;20488;-82
2023/08/03 01:55:22;;;;;;;13.40;13.00;;;18.20;99.90;;;;;;4905695;29;20619;-82
2023/08/03 01:57:52;;;;;;;14.60;13.90;;;18.10;99.90;;;;;;4905437;29;20446;-83
2023/08/03 02:00:20;;;;;;;14.23;13.63;;;18.10;99.90;;;;;;4899046;29;20458;-83
2023/08/03 02:02:48;;;;;;;15.40;14.40;;;18.10;99.90;;;;;;4903855;29;20477;-83
2023/08/03 02:05:16;;;;;;;15.63;14.87;;;18.10;99.90;;;;;;4903869;29;20483;-83
2023/08/03 02:07:46;;;;;;;15.23;14.50;;;18.10;99.90;;;;;;4904512;29;20496;-82
2023/08/03 02:10:15;;;;;;;15.03;14.33;;;18.10;99.90;;;;;;4906274;29;20458;-81
2023/08/03 02:12:43;;;;;;;15.33;14.37;;;18.10;99.90;;;;;;4902131;29;20553;-82
2023/08/03 02:15:13;;;;;;;15.63;14.50;;;18.00;99.90;;;;;;4904762;29;20476;-81
2023/08/03 02:17:42;;;;;;;15.27;14.67;;;18.00;99.90;;;;;;4903895;29;20461;-82
2023/08/03 02:20:12;;;;;;;15.47;14.67;;;18.00;99.90;;;;;;4904893;29;20469;-80
2023/08/03 02:22:40;;;;;;;15.90;15.00;;;18.00;99.90;;;;;;4907601;29;20466;-83
2023/08/03 02:25:09;;;;;;;15.87;15.07;;;18.00;99.90;;;;;;4906997;29;20525;-81
2023/08/03 02:27:37;;;;;;;15.40;14.53;;;18.00;99.90;;;;;;4905173;29;20469;-83
2023/08/03 02:30:06;;;;;;;15.50;14.73;;;18.00;99.90;;;;;;4911743;29;21089;-84
2023/08/03 02:32:36;;;;;;;16.50;15.40;;;18.00;99.90;;;;;;4909897;29;20469;-84
2023/08/03 02:35:05;;;;;;;15.30;14.43;;;18.10;99.90;;;;;;4902338;29;20489;-80
2023/08/03 02:37:33;;;;;;;16.90;15.27;;;18.00;99.90;;;;;;4907580;29;20781;-83
2023/08/03 02:40:02;;;;;;;15.80;15.00;;;18.00;99.90;;;;;;4907296;29;20465;-83
2023/08/03 02:42:30;;;;;;;15.60;14.73;;;18.10;99.90;;;;;;4908899;29;20457;-83
2023/08/03 02:44:58;;;;;;;15.40;14.70;;;18.10;99.90;;;;;;4906675;29;20590;-81
2023/08/03 02:47:27;;;;;;;15.20;14.53;;;18.10;99.90;;;;;;4906930;29;20542;-82
2023/08/03 02:49:57;;;;;;;15.30;14.40;;;18.10;99.90;;;;;;4908780;29;20517;-82
2023/08/03 02:52:25;;;;;;;15.67;14.87;;;18.10;99.90;;;;;;4904301;29;20955;-82
2023/08/03 02:54:53;;;;;;;15.13;14.37;;;18.00;99.90;;;;;;4903802;29;20549;-82
2023/08/03 02:57:21;;;;;;;16.33;15.50;;;18.00;99.90;;;;;;4907659;29;20476;-83
2023/08/03 02:59:49;;;;;;;15.53;14.73;;;18.00;99.90;;;;;;4906614;29;20475;-80
2023/08/03 03:02:17;;;;;;;15.60;14.63;;;17.90;99.90;;;;;;4908753;29;20470;-81
2023/08/03 03:04:46;;;;;;;15.13;14.30;;;18.00;99.90;;;;;;4904184;29;20493;-79
2023/08/03 03:07:15;;;;;;;15.63;14.80;;;17.90;99.90;;;;;;4906955;29;20826;-82
2023/08/03 03:09:43;;;;;;;15.93;14.90;;;17.80;99.90;;;;;;4904179;29;20465;-82
2023/08/03 03:12:11;;;;;;;15.47;14.60;;;17.80;99.90;;;;;;4905416;29;20476;-81
2023/08/03 03:14:39;;;;;;;15.03;14.43;;;17.70;99.90;;;;;;4909974;29;20493;-79
2023/08/03 03:17:08;;;;;;;16.37;15.07;;;17.70;99.90;;;;;;4908763;29;20903;-79
2023/08/03 03:19:36;;;;;;;16.13;15.43;;;17.70;99.90;;;;;;4908168;29;20671;-80
2023/08/03 03:22:04;;;;;;;15.57;14.70;;;17.70;99.90;;;;;;4907246;29;20951;-80
2023/08/03 03:24:34;;;;;;;15.33;14.60;;;17.70;99.90;;;;;;4906470;29;20990;-83
2023/08/03 03:27:02;;;;;;;15.60;14.97;;;17.70;99.90;;;;;;4911550;29;20492;-82
2023/08/03 03:29:30;;;;;;;16.93;15.67;;;17.70;99.90;;;;;;4909819;29;20464;-85
2023/08/03 03:31:59;;;;;;;15.53;14.67;;;17.70;99.90;;;;;;4909670;29;20667;-81
2023/08/03 03:34:31;;;;;;;15.87;14.77;;;17.70;99.90;;;;;;4909307;29;21034;-82
2023/08/03 03:36:59;;;;;;;15.93;15.17;;;17.60;99.90;;;;;;4910751;29;20507;-81
2023/08/03 03:39:29;;;;;;;16.43;15.33;;;17.70;99.90;;;;;;4907333;29;20477;-79
2023/08/03 03:41:58;;;;;;;15.60;14.60;;;17.70;99.90;;;;;;4904349;29;22932;-83
2023/08/03 03:44:27;;;;;;;16.03;15.07;;;17.70;99.90;;;;;;4910830;29;20509;-82
2023/08/03 03:46:55;;;;;;;15.83;14.77;;;17.70;99.90;;;;;;4909098;29;20454;-81
2023/08/03 03:49:24;;;;;;;15.13;14.53;;;17.70;99.90;;;;;;4905668;29;20467;-81
2023/08/03 03:51:52;;;;;;;14.93;14.30;;;17.60;99.90;;;;;;4910044;29;21827;-81
2023/08/03 03:54:20;;;;;;;15.13;14.37;;;17.60;99.90;;;;;;4913220;29;20488;-85
2023/08/03 03:56:48;;;;;;;14.60;14.10;;;17.60;99.90;;;;;;4908721;29;20835;-85
2023/08/03 03:59:18;;;;;;;15.80;14.57;;;17.60;99.90;;;;;;4909197;29;21008;-85
2023/08/03 04:01:46;;;;;;;14.70;14.20;;;17.40;99.90;;;;;;4901030;29;20464;-82
2023/08/03 04:04:17;;;;;;;14.40;13.70;;;17.50;99.90;;;;;;4904980;29;20521;-82
2023/08/03 04:06:45;;;;;;;14.33;13.60;;;17.50;99.90;;;;;;4908556;29;20589;-81
2023/08/03 04:09:13;;;;;;;14.43;13.83;;;17.50;28.70;;;;;;4910030;29;20510;-83
2023/08/03 04:11:41;;;;;;;14.23;13.73;;;17.50;99.90;;;;;;4906479;29;20523;-82
2023/08/03 04:14:10;;;;;;;14.33;13.67;;;17.50;24.60;;;;;;4907789;29;20839;-80
2023/08/03 04:16:39;;;;;;;14.70;14.10;;;17.50;55.60;;;;;;4904427;29;20465;-81
2023/08/03 04:19:08;;;;;;;13.77;13.30;;;17.60;1.00;;;;;;4908979;29;21028;-85
2023/08/03 04:21:36;;;;;;;14.27;13.77;;;17.50;11.20;;;;;;4904728;29;20470;-85
2023/08/03 04:24:05;;;;;;;14.03;13.60;;;17.50;1.00;;;;;;4909471;29;20487;-83
2023/08/03 04:26:33;;;;;;;14.60;14.10;;;17.50;1.00;;;;;;4907245;29;20499;-84
2023/08/03 04:29:01;;;;;;;14.17;13.77;;;17.50;1.00;;;;;;4909127;29;20942;-85
2023/08/03 04:31:29;;;;;;;14.40;13.90;;;17.50;1.00;;;;;;4912573;29;20499;-87
2023/08/03 04:33:59;;;;;;;14.20;13.70;;;17.50;1.00;;;;;;4908806;29;20495;-87
2023/08/03 04:36:27;;;;;;;14.20;13.70;;;17.40;1.00;;;;;;4908624;29;20465;-84
2023/08/03 04:38:55;;;;;;;14.00;13.53;;;17.50;1.00;;;;;;4904655;29;20499;-87
2023/08/03 04:41:24;;;;;;;13.80;13.40;;;17.50;1.00;;;;;;4902203;29;20470;-86
2023/08/03 04:43:52;;;;;;;13.93;13.43;;;17.40;1.00;;;;;;4907342;29;20495;-85
2023/08/03 04:46:20;;;;;;;13.80;13.30;;;17.50;1.00;;;;;;4908191;29;20556;-86
2023/08/03 04:48:49;;;;;;;13.43;13.13;;;17.50;1.00;;;;;;4905399;29;20744;-85
2023/08/03 04:51:18;;;;;;;15.10;14.40;;;17.40;1.00;;;;;;4908024;29;20815;-84
2023/08/03 04:53:46;;;;;;;13.90;13.50;;;17.40;1.00;;;;;;4901493;29;21148;-85
2023/08/03 04:56:15;;;;;;;14.30;13.57;;;17.40;1.00;;;;;;4901943;29;20458;-85
2023/08/03 04:58:43;;;;;;;13.53;13.07;;;17.50;1.00;;;;;;4903695;29;20960;-84
2023/08/03 05:01:11;;;;;;;13.90;13.40;;;17.40;1.00;;;;;;4902364;29;20534;-85
2023/08/03 05:03:39;;;;;;;13.93;13.43;;;17.40;1.00;;;;;;4900258;29;20478;-86
2023/08/03 05:06:08;;;;;;;13.67;13.27;;;17.40;1.00;;;;;;4904507;29;20489;-84
2023/08/03 05:08:37;;;;;;;14.00;13.30;;;17.50;1.00;;;;;;4904777;29;20462;-84
2023/08/03 05:11:06;;;;;;;13.80;13.30;;;17.50;44.80;;;;;;4903098;29;20469;-83
2023/08/03 05:13:34;;;;;;;14.80;13.97;;;17.50;47.90;;;;;;4903187;29;20882;-84
2023/08/03 05:16:02;;;;;;;14.10;13.40;;;17.60;25.90;;;;;;4906742;29;20461;-84
2023/08/03 05:18:31;;;;;;;13.77;13.37;;;17.70;7.80;;;;;;4904699;29;20467;-86
2023/08/03 05:20:59;;;;;;;14.00;13.30;;;17.80;1.00;;;;;;4904924;29;20465;-85
2023/08/03 05:23:27;;;;;;;14.07;13.37;;;17.70;3.30;;;;;;4902927;29;20524;-82
2023/08/03 05:25:58;;;;;;;14.50;13.90;;;17.70;1.00;;;;;;4902828;29;20487;-84
2023/08/03 05:28:26;;;;;;;14.40;13.80;;;17.60;43.90;;;;;;4909078;29;20461;-84
2023/08/03 05:30:55;;;;;;;13.87;13.27;;;17.50;92.30;;;;;;4907788;29;20499;-84
2023/08/03 05:33:23;;;;;;;14.47;13.77;;;17.50;99.90;;;;;;4903502;29;20486;-84
2023/08/03 05:35:51;;;;;;;14.43;13.80;;;17.60;99.90;;;;;;4906977;29;20556;-85
2023/08/03 05:38:20;;;;;;;14.27;13.67;;;17.70;99.90;;;;;;4913413;29;20457;-83
2023/08/03 05:40:48;;;;;;;14.57;13.90;;;17.60;99.90;;;;;;4907308;29;20466;-83
2023/08/03 05:43:20;;;;;;;15.10;14.10;;;17.70;99.90;;;;;;4902950;29;20555;-86
2023/08/03 05:45:50;;;;;;;14.53;13.83;;;17.70;99.90;;;;;;4901874;29;20997;-86
2023/08/03 05:48:19;;;;;;;14.20;13.70;;;17.80;99.90;;;;;;4905508;29;20463;-85
2023/08/03 05:50:50;;;;;;;14.50;14.00;;;17.80;91.40;;;;;;4905060;29;20972;-90
2023/08/03 05:53:19;;;;;;;14.40;13.77;;;17.80;59.30;;;;;;4903511;29;20472;-86
2023/08/03 05:55:49;;;;;;;15.10;14.30;;;17.90;97.10;;;;;;4910408;29;20466;-85
2023/08/03 05:58:38;;;;;;;15.27;14.53;;;17.90;59.60;;;;;;4901651;29;20462;-83
2023/08/03 06:01:09;;;;;;;15.00;14.40;;;18.00;16.30;;;;;;4905376;29;20557;-83
2023/08/03 06:03:44;;;;;;;14.83;14.23;;;18.10;1.00;;;;;;4897933;29;20862;-82
2023/08/03 06:06:22;;;;;;;14.63;14.03;;;18.00;1.00;;;;;;4915889;29;20540;-83
2023/08/03 06:08:52;;;;;;;14.47;13.93;;;18.00;1.00;;;;;;4908825;29;20453;-81
2023/08/03 06:11:21;;;;;;;15.23;14.60;;;18.00;1.00;;;;;;4905146;29;20542;-82
2023/08/03 06:13:53;;;;;;;14.50;14.00;;;18.00;1.00;;;;;;4903917;29;20481;-82
2023/08/03 06:16:24;;;;;;;14.60;14.20;;;18.10;1.00;;;;;;4905815;29;20465;-81
2023/08/03 06:18:54;;;;;;;14.50;14.00;;;18.10;1.00;;;;;;4906090;29;20458;-82
2023/08/03 06:21:24;;;;;;;14.50;13.90;;;18.20;1.00;;;;;;4905881;29;20483;-81
2023/08/03 06:23:54;;;;;;;15.00;14.17;;;18.20;1.00;;;;;;4901263;29;20546;-83
2023/08/03 06:26:22;;;;;;;14.53;14.00;;;18.30;1.00;;;;;;4901216;29;20525;-81
2023/08/03 06:28:56;;;;;;;14.20;13.70;;;18.30;1.00;;;;;;4904630;29;20465;-82
2023/08/03 06:31:30;;;;;;;14.50;13.83;;;18.40;1.00;;;;;;4904083;29;20494;-81
2023/08/03 06:33:59;;;;;;;14.90;14.20;;;18.50;1.00;;;;;;4901926;29;21114;-81
2023/08/03 06:36:28;;;;;;;14.47;14.07;;;18.60;99.90;;;;;;4907065;29;21050;-82
2023/08/03 06:38:57;;;;;;;14.00;13.60;;;18.70;99.90;;;;;;4910502;29;20906;-81
2023/08/03 06:41:26;;;;;;;14.27;13.87;;;18.90;99.90;;;;;;4906257;29;20461;-81
2023/08/03 06:43:57;;;;;;;14.60;14.00;;;18.90;99.90;;;;;;4905524;29;20489;-82
2023/08/03 06:46:26;;;;;;;13.60;13.23;;;19.00;99.90;;;;;;4906463;29;20478;-81
2023/08/03 06:48:55;;;;;;;13.85;13.35;;;19.10;99.90;;;;;;4904175;29;20455;-81
2023/08/03 06:51:23;;;;;;;13.47;13.00;;;19.40;99.90;;;;;;4901247;29;20285;-82
2023/08/03 06:53:52;;;;;;;13.77;13.37;;;19.50;99.90;;;;;;4904727;29;20581;-84
2023/08/03 06:56:20;;;;;;;13.27;12.90;;;19.60;99.90;;;;;;4902260;29;20693;-84
2023/08/03 06:58:48;;;;;;;13.57;13.13;;;19.70;99.90;;;;;;4904690;29;20976;-84
2023/08/03 07:01:18;;;;;;;13.53;13.10;;;19.80;99.90;;;;;;4903984;29;20471;-84
2023/08/03 07:03:46;;;;;;;13.60;13.10;;;20.00;99.90;;;;;;4904971;29;20920;-84
2023/08/03 07:06:14;;;;;;;14.10;13.50;;;20.10;99.90;;;;;;4899965;29;20790;-84
2023/08/03 07:08:43;;;;;;;14.50;13.70;;;20.30;99.90;;;;;;4903309;29;20278;-84
2023/08/03 07:11:12;;;;;;;14.40;13.90;;;20.30;99.90;;;;;;4903347;29;20474;-84
2023/08/03 07:13:40;;;;;;;14.50;14.10;;;20.40;99.90;;;;;;4904283;29;21536;-83
2023/08/03 07:16:09;;;;;;;14.20;13.70;;;20.40;99.90;;;;;;4901428;29;20453;-85
2023/08/03 07:18:38;;;;;;;14.27;13.70;;;20.50;99.90;;;;;;4900095;29;20461;-83
2023/08/03 07:21:07;;;;;;;14.93;14.30;;;20.50;99.90;;;;;;4901728;29;20458;-84
2023/08/03 07:23:36;;;;;;;14.43;13.90;;;20.60;99.90;;;;;;4901024;29;20569;-84
2023/08/03 07:26:04;;;;;;;14.33;13.83;;;20.50;99.90;;;;;;4898051;29;20463;-84
2023/08/03 07:28:32;;;;;;;14.50;14.10;;;20.60;99.90;;;;;;4902708;29;20485;-84
2023/08/03 07:31:00;;;;;;;14.40;14.00;;;20.70;99.90;;;;;;4907948;29;20465;-83
2023/08/03 07:40:44;;;;;;;13.83;13.40;;;20.70;99.90;;;;;;5723751;23;20557;-83
2023/08/03 07:43:28;;;;;;;13.80;13.30;;;20.60;99.90;;;;;;4883595;29;20529;-84
2023/08/03 07:45:59;;;;;;;13.70;13.20;;;20.50;99.90;;;;;;4899654;28;20470;-86
2023/08/03 07:48:35;;;;;;;14.87;14.17;;;20.50;99.90;;;;;;4921618;29;21004;-89
2023/08/03 07:51:21;;;;;;;14.00;13.50;;;20.50;99.90;;;;;;4905817;29;20482;-86
2023/08/03 07:53:58;;;;;;;14.53;14.00;;;20.50;99.90;;;;;;4906063;29;20462;-86
2023/08/03 07:56:36;;;;;;;14.30;13.90;;;20.50;99.90;;;;;;4919431;29;20473;-84
2023/08/03 07:59:06;;;;;;;14.50;13.90;;;20.50;99.90;;;;;;4909536;29;20458;-85
2023/08/03 08:01:45;;;;;;;14.43;14.03;;;20.50;99.90;;;;;;4908012;29;20516;-84
2023/08/03 08:04:18;;;;;;;15.13;14.40;;;20.50;99.90;;;;;;4907715;29;20466;-83
2023/08/03 08:06:52;;;;;;;15.40;14.63;;;20.40;99.90;;;;;;4908884;29;20525;-82
2023/08/03 08:09:25;;;;;;;14.70;14.17;;;20.40;99.90;;;;;;4912681;29;20907;-83
2023/08/03 08:11:58;;;;;;;14.70;14.30;;;20.30;99.90;;;;;;4909236;29;20509;-84
2023/08/03 08:14:37;;;;;;;14.80;14.40;;;20.30;99.90;;;;;;4908165;29;20449;-84
2023/08/03 08:17:11;;;;;;;14.47;14.07;;;20.30;99.90;;;;;;4911256;29;20545;-84
2023/08/03 08:19:43;;;;;;;15.30;14.63;;;20.30;99.90;;;;;;4909712;29;20478;-85
2023/08/03 08:29:52;;;;;;;14.67;14.13;;;20.00;99.90;;;;;;4907710;29;20511;-84
2023/08/03 08:32:28;;;;;;;14.03;13.63;;;20.00;99.90;;;;;;4906820;29;20851;-86
2023/08/03 08:35:04;;;;;;;14.67;14.17;;;20.00;99.90;;;;;;4909711;29;20545;-88
2023/08/03 08:37:35;;;;;;;14.20;13.70;;;19.90;99.90;;;;;;4915691;29;20476;-83
2023/08/03 08:40:12;;;;;;;14.03;13.60;;;20.00;99.90;;;;;;4915852;29;20433;-84
2023/08/03 08:42:43;;;;;;;14.60;14.10;;;20.00;99.90;;;;;;4917760;29;20465;-85
2023/08/03 08:45:15;;;;;;;15.33;14.77;;;20.10;99.90;;;;;;4914294;29;20513;-83
2023/08/03 08:47:51;;;;;;;15.43;14.60;;;20.10;99.90;;;;;;4912749;29;20491;-84
2023/08/03 08:50:50;;;;;;;14.50;14.13;;;20.30;99.90;;;;;;4918766;29;21167;-84
2023/08/03 08:53:35;;;;;;;14.80;14.30;;;20.30;99.90;;;;;;4918238;29;20509;-84
2023/08/03 08:56:07;;;;;;;14.83;14.43;;;20.30;99.90;;;;;;4915914;29;20454;-86
2023/08/03 08:58:58;;;;;;;15.47;14.87;;;20.50;99.90;;;;;;4915516;29;21165;-86
2023/08/03 09:01:56;;;;;;;15.03;14.43;;;20.40;99.90;;;;;;4928428;29;20476;-84
2023/08/03 09:04:34;;;;;;;15.13;14.50;;;20.30;99.90;;;;;;4914285;29;20453;-84
2023/08/03 09:07:11;;;;;;;14.47;14.07;;;20.20;99.90;;;;;;4915237;29;20469;-84
2023/08/03 09:09:45;;;;;;;13.97;13.50;;;20.20;99.90;;;;;;4906826;29;20472;-86
2023/08/03 09:12:25;;;;;;;14.87;14.33;;;20.20;99.90;;;;;;4908929;29;20573;-86
2023/08/03 09:14:55;;;;;;;14.30;13.70;;;20.40;99.90;;;;;;4911649;29;20525;-84
2023/08/03 09:17:31;;;;;;;13.97;13.47;;;20.50;99.90;;;;;;4911146;29;20467;-84
2023/08/03 09:20:06;;;;;;;14.07;13.70;;;20.60;99.90;;;;;;4913056;29;20512;-83
2023/08/03 09:22:48;;;;;;;14.30;13.80;;;20.40;99.90;;;;;;4910871;29;20446;-84
2023/08/03 09:25:24;;;;;;;13.90;13.50;;;20.50;99.90;;;;;;4912427;29;20474;-83
2023/08/03 09:28:15;;;;;;;14.10;13.70;;;20.60;99.90;;;;;;4914563;29;21018;-82
2023/08/03 09:30:52;;;;;;;14.20;13.80;;;20.70;99.90;;;;;;4911327;29;20573;-83
2023/08/03 09:33:30;;;;;;;14.77;14.37;;;20.80;99.90;;;;;;4909601;29;20497;-84
2023/08/03 09:36:24;;;;;;;14.30;13.80;;;20.80;99.90;;;;;;4913250;29;20958;-84
2023/08/03 09:39:16;;;;;;;15.23;14.17;;;20.80;99.90;;;;;;4913848;29;20510;-84
2023/08/03 09:41:49;;;;;;;14.57;14.10;;;20.70;99.90;;;;;;4914263;29;20498;-87
2023/08/03 09:44:23;;;;;;;14.40;14.00;;;20.60;99.90;;;;;;4912276;29;20446;-82
2023/08/03 09:47:04;;;;;;;14.10;13.80;;;20.70;99.90;;;;;;4906152;29;20450;-85
2023/08/03 09:49:38;;;;;;;14.20;13.80;;;20.60;99.90;;;;;;4909852;29;20489;-87
2023/08/03 09:52:11;;;;;;;14.03;13.60;;;20.80;99.90;;;;;;4926528;29;21063;-85
2023/08/03 09:54:55;;;;;;;14.40;14.00;;;20.80;99.90;;;;;;4910091;29;20481;-84
2023/08/03 09:57:39;;;;;;;14.10;13.60;;;20.70;99.90;;;;;;4908615;29;20480;-85
2023/08/03 10:00:21;;;;;;;14.27;13.80;;;20.80;99.90;;;;;;4911348;29;20473;-86
2023/08/03 10:03:10;;;;;;;13.50;13.20;;;20.90;99.90;;;;;;4920738;29;20841;-84
2023/08/03 10:05:51;;;;;;;14.30;14.00;;;20.90;99.90;;;;;;4905479;29;20967;-87
2023/08/03 10:08:28;;;;;;;13.37;12.87;;;20.70;99.90;;;;;;4904350;29;20492;-85
2023/08/03 10:11:02;;;;;;;13.67;13.27;;;20.70;99.90;;;;;;4904438;29;20474;-86
2023/08/03 10:13:35;;;;;;;14.27;13.87;;;20.60;99.90;;;;;;4920454;29;20465;-85
2023/08/03 10:16:17;;;;;;;14.17;13.73;;;20.70;99.90;;;;;;4907257;29;20458;-84
2023/08/03 10:18:53;;;;;;;14.10;13.60;;;20.70;99.90;;;;;;4906235;29;20513;-85
2023/08/03 10:21:37;;;;;;;13.97;13.60;;;20.70;99.90;;;;;;4905462;29;20576;-83
2023/08/03 10:24:12;;;;;;;14.60;14.00;;;20.60;99.90;;;;;;4909330;29;20983;-85
2023/08/03 10:26:45;;;;;;;13.77;13.43;;;20.60;99.90;;;;;;4907213;29;20462;-85
2023/08/03 10:29:55;;;;;;;13.90;13.40;;;20.60;99.90;;;;;;4903332;29;20501;-85
2023/08/03 10:32:52;;;;;;;13.87;13.47;;;20.50;99.90;;;;;;4906301;29;20930;-83
2023/08/03 10:35:39;;;;;;;13.07;12.70;;;20.60;99.90;;;;;;4904329;29;20503;-88
2023/08/03 10:38:30;;;;;;;13.03;12.73;;;20.60;99.90;;;;;;4918878;29;20450;-84
2023/08/03 10:41:29;;;;;;;13.60;13.20;;;20.70;99.90;;;;;;4921326;29;20544;-85
2023/08/03 10:44:28;;;;;;;13.40;13.00;;;20.90;99.90;;;;;;4906953;29;20482;-86
2023/08/03 10:47:05;;;;;;;13.30;13.00;;;21.00;99.90;;;;;;4906190;29;20541;-86
2023/08/03 10:49:58;;;;;;;13.57;13.27;;;20.90;99.90;;;;;;4911345;29;20841;-87
2023/08/03 10:52:37;;;;;;;13.70;13.30;;;21.00;99.90;;;;;;4911672;29;20473;-83
2023/08/03 10:55:26;;;;;;;13.60;13.30;;;20.90;99.90;;;;;;4909214;29;20491;-82
2023/08/03 10:58:06;;;;;;;13.00;12.70;;;20.80;99.90;;;;;;4907562;29;20461;-85
2023/08/03 11:00:42;;;;;;;13.40;13.00;;;20.90;99.90;;;;;;4920746;29;20840;-83
2023/08/03 11:03:19;;;;;;;13.57;13.27;;;21.00;99.90;;;;;;4909965;29;20473;-85
2023/08/03 11:06:00;;;;;;;14.33;13.83;;;21.10;99.90;;;;;;4920478;29;20553;-85
2023/08/03 11:08:37;;;;;;;13.90;13.50;;;21.30;99.90;;;;;;4910696;29;21006;-85
2023/08/03 11:11:23;;;;;;;13.63;13.30;;;21.50;99.90;;;;;;4908636;29;20469;-84
2023/08/03 11:13:58;;;;;;;13.80;13.23;;;21.50;99.90;;;;;;4909660;29;20975;-85
2023/08/03 11:16:34;;;;;;;13.60;13.30;;;21.40;99.90;;;;;;4918535;29;20467;-85
2023/08/03 11:19:19;;;;;;;14.10;13.70;;;21.40;99.90;;;;;;4908789;29;20557;-83
2023/08/03 11:22:08;;;;;;;13.93;13.37;;;21.40;99.90;;;;;;4910027;29;20480;-86
2023/08/03 11:24:48;;;;;;;13.80;13.50;;;21.50;99.90;;;;;;4906171;29;20539;-84
2023/08/03 11:27:29;;;;;;;14.10;13.70;;;21.50;99.90;;;;;;4911091;29;20460;-84
2023/08/03 11:30:10;;;;;;;13.60;13.30;;;21.40;99.90;;;;;;4906957;29;20485;-84
2023/08/03 11:32:41;;;;;;;14.00;13.50;;;21.40;99.90;;;;;;4911114;29;20975;-83
2023/08/03 11:35:18;;;;;;;14.50;13.90;;;21.20;99.90;;;;;;4904792;29;20448;-85
2023/08/03 11:37:49;;;;;;;14.20;13.70;;;21.20;99.90;;;;;;4903475;29;20501;-85
2023/08/03 11:40:25;;;;;;;14.33;13.80;;;21.30;99.90;;;;;;4920735;29;20841;-87
2023/08/03 11:43:01;;;;;;;14.07;13.47;;;21.30;99.90;;;;;;4905588;29;20479;-85
2023/08/03 11:45:33;;;;;;;14.47;14.07;;;21.40;99.90;;;;;;4906085;29;20987;-80
2023/08/03 11:48:04;;;;;;;14.20;13.70;;;21.20;99.90;;;;;;4906224;29;20453;-87
2023/08/03 11:50:40;;;;;;;14.00;13.70;;;21.20;99.90;;;;;;4913887;29;20225;-86
2023/08/03 11:53:36;;;;;;;14.47;13.97;;;21.40;99.90;;;;;;4908170;29;20463;-88
2023/08/03 11:56:10;;;;;;;13.80;13.50;;;21.40;99.90;;;;;;4904052;29;20561;-86
2023/08/03 11:58:43;;;;;;;14.10;13.70;;;21.40;99.90;;;;;;4908038;29;20465;-84
2023/08/03 12:01:16;;;;;;;13.80;13.50;;;21.50;99.90;;;;;;4906461;29;21026;-85
2023/08/03 12:03:55;;;;;;;14.30;13.90;;;21.70;99.90;;;;;;4909738;29;20469;-89
2023/08/03 12:06:27;;;;;;;14.60;14.00;;;21.70;99.90;;;;;;4907920;29;20449;-86
2023/08/03 12:09:09;;;;;;;13.90;13.60;;;21.70;99.90;;;;;;4909036;29;20461;-87
2023/08/03 12:11:47;;;;;;;13.87;13.57;;;21.60;99.90;;;;;;4911140;29;21023;-85
2023/08/03 12:14:29;;;;;;;14.10;13.60;;;21.50;99.90;;;;;;4910698;29;20472;-83
2023/08/03 12:17:02;;;;;;;14.40;13.80;;;21.40;99.90;;;;;;4905956;29;20469;-84
2023/08/03 12:19:38;;;;;;;14.57;14.13;;;21.30;99.90;;;;;;4925529;29;20467;-84
2023/08/03 12:22:25;;;;;;;14.40;14.00;;;20.90;99.90;;;;;;4906866;29;20473;-85
2023/08/03 12:25:09;;;;;;;14.50;14.00;;;20.80;99.90;;;;;;4906130;29;20475;-84
2023/08/03 12:27:41;;;;;;;14.63;14.20;;;20.80;99.90;;;;;;4908824;29;20463;-87
2023/08/03 12:30:19;;;;;;;14.70;14.30;;;20.70;99.90;;;;;;4911705;29;21001;-82
2023/08/03 12:32:50;;;;;;;14.47;14.10;;;20.80;99.90;;;;;;4908791;29;20453;-83
2023/08/03 12:35:27;;;;;;;14.60;14.20;;;20.80;99.90;;;;;;4908561;29;20531;-86
2023/08/03 12:38:13;;;;;;;15.17;14.57;;;21.00;99.90;;;;;;4910188;29;20523;-86
2023/08/03 12:40:50;;;;;;;14.70;14.20;;;21.10;99.90;;;;;;4921204;29;20563;-85
2023/08/03 12:43:20;;;;;;;15.17;14.77;;;21.20;99.90;;;;;;4905785;29;21010;-85
2023/08/03 12:45:54;;;;;;;14.37;14.07;;;21.20;99.90;;;;;;4907802;29;20458;-86
2023/08/03 12:48:28;;;;;;;14.70;14.10;;;21.10;99.90;;;;;;4903552;29;20454;-89
2023/08/03 12:51:02;;;;;;;13.93;13.60;;;21.00;99.90;;;;;;4911144;29;20487;-85
2023/08/03 12:53:35;;;;;;;14.53;14.23;;;21.10;99.90;;;;;;4908984;29;20463;-85
2023/08/03 12:56:06;;;;;;;14.10;13.70;;;21.20;99.90;;;;;;4904707;29;20454;-86
2023/08/03 12:58:37;;;;;;;14.57;14.17;;;21.20;99.90;;;;;;4908354;29;20509;-86
2023/08/03 13:01:09;;;;;;;14.80;14.30;;;21.20;99.90;;;;;;4906521;29;20492;-86
2023/08/03 13:03:45;;;;;;;14.70;14.13;;;21.40;99.90;;;;;;4922151;29;20477;-86
2023/08/03 13:06:21;;;;;;;15.90;15.40;;;21.40;99.90;;;;;;4912049;29;20564;-86
2023/08/03 13:08:54;;;;;;;14.53;14.00;;;21.50;99.90;;;;;;4906018;29;21018;-84
2023/08/03 13:11:26;;;;;;;14.47;14.17;;;21.60;99.90;;;;;;4908807;29;20517;-86